createdAt,value
2018-12-18T00:02:01.534Z,34.07
2018-12-18T00:04:29.688Z,34.00
2018-12-18T00:06:57.842Z,34.13
2018-12-18T00:09:26.007Z,34.40
2018-12-18T00:11:59.288Z,34.97
2018-12-18T00:14:24.370Z,33.03
2018-12-18T00:16:52.517Z,35.27
2018-12-18T00:19:20.706Z,34.90
2018-12-18T00:21:48.855Z,35.23
2018-12-18T00:24:16.998Z,34.93
2018-12-18T00:26:45.146Z,35.17
2018-12-18T00:29:13.297Z,34.87
2018-12-18T00:31:42.050Z,35.10
2018-12-18T00:34:10.510Z,34.70
2018-12-18T00:36:38.897Z,35.63
2018-12-18T00:39:11.358Z,35.90
2018-12-18T00:41:39.626Z,35.60
2018-12-18T00:44:07.773Z,36.27
2018-12-18T00:46:35.941Z,35.73
2018-12-18T00:49:04.117Z,36.73
2018-12-18T00:51:32.279Z,35.60
2018-12-18T00:54:00.425Z,36.67
2018-12-18T00:56:28.617Z,35.87
2018-12-18T00:58:56.774Z,36.17
2018-12-18T01:01:24.902Z,35.87
2018-12-18T01:03:53.141Z,34.87
2018-12-18T01:06:21.322Z,35.63
2018-12-18T01:08:49.472Z,35.47
2018-12-18T01:11:17.710Z,34.47
2018-12-18T01:13:45.891Z,35.03
2018-12-18T01:16:14.265Z,34.47
2018-12-18T01:18:42.504Z,33.40
2018-12-18T01:21:10.696Z,33.73
2018-12-18T01:23:39.009Z,34.37
2018-12-18T01:26:07.178Z,33.07
2018-12-18T01:28:35.327Z,31.63
2018-12-18T01:31:03.477Z,30.60
2018-12-18T01:33:31.687Z,32.07
2018-12-18T01:35:59.830Z,31.90
2018-12-18T01:38:28.078Z,31.77
2018-12-18T01:40:56.223Z,32.20
2018-12-18T01:43:24.379Z,32.57
2018-12-18T01:45:52.638Z,29.73
2018-12-18T01:48:20.790Z,28.50
2018-12-18T01:50:48.967Z,29.23
2018-12-18T01:53:17.102Z,28.87
2018-12-18T01:55:45.278Z,26.57
2018-12-18T01:58:13.429Z,26.70
2018-12-18T02:00:41.602Z,25.70
2018-12-18T02:03:09.762Z,26.70
2018-12-18T02:05:37.951Z,26.47
2018-12-18T02:08:06.107Z,27.30
2018-12-18T02:10:36.257Z,28.30
2018-12-18T02:13:04.409Z,28.93
2018-12-18T02:15:32.574Z,29.57
2018-12-18T02:18:00.773Z,29.93
2018-12-18T02:20:28.902Z,30.67
2018-12-18T02:22:57.050Z,30.13
2018-12-18T02:25:25.298Z,31.63
2018-12-18T02:27:53.530Z,32.73
2018-12-18T02:30:21.757Z,30.80
2018-12-18T02:32:49.890Z,30.67
2018-12-18T02:35:18.087Z,31.77
2018-12-18T02:37:46.251Z,30.63
2018-12-18T02:40:14.419Z,30.33
2018-12-18T02:42:42.601Z,30.63
2018-12-18T02:45:10.754Z,30.93
2018-12-18T02:47:38.958Z,29.77
2018-12-18T02:50:07.130Z,30.00
2018-12-18T02:52:35.302Z,29.97
2018-12-18T02:55:03.583Z,28.93
2018-12-18T02:57:31.754Z,30.00
2018-12-18T02:59:59.874Z,29.57
2018-12-18T03:02:28.104Z,29.37
2018-12-18T03:04:56.236Z,28.97
2018-12-18T03:07:24.378Z,29.60
2018-12-18T03:09:53.269Z,30.43
2018-12-18T03:12:21.439Z,28.40
2018-12-18T03:14:49.595Z,29.63
2018-12-18T03:17:17.714Z,29.60
2018-12-18T03:19:45.870Z,28.80
2018-12-18T03:22:14.006Z,28.87
2018-12-18T03:24:42.205Z,28.33
2018-12-18T03:27:10.345Z,29.03
2018-12-18T03:29:38.499Z,28.43
2018-12-18T03:32:10.916Z,28.83
2018-12-18T03:34:39.091Z,29.40
2018-12-18T03:37:07.239Z,27.50
2018-12-18T03:39:35.392Z,28.40
2018-12-18T03:42:03.727Z,28.57
2018-12-18T03:44:31.868Z,27.73
2018-12-18T03:47:00.010Z,28.87
2018-12-18T03:49:28.131Z,28.30
2018-12-18T03:51:56.937Z,28.67
2018-12-18T03:54:25.089Z,28.60
2018-12-18T03:56:53.233Z,28.60
2018-12-18T03:59:21.345Z,27.67
2018-12-18T04:01:49.540Z,27.60
2018-12-18T04:04:17.807Z,28.00
2018-12-18T04:06:45.963Z,28.07
2018-12-18T04:09:14.160Z,28.10
2018-12-18T04:11:47.863Z,28.20
2018-12-18T04:14:16.036Z,28.30
2018-12-18T04:16:44.174Z,27.80
2018-12-18T04:19:12.314Z,27.97
2018-12-18T04:21:41.257Z,27.37
2018-12-18T04:24:09.422Z,26.20
2018-12-18T04:26:37.559Z,26.60
2018-12-18T04:29:05.714Z,26.90
2018-12-18T04:31:33.848Z,28.37
2018-12-18T04:34:02.002Z,28.13
2018-12-18T04:36:30.239Z,26.60
2018-12-18T04:38:58.390Z,28.03
2018-12-18T04:41:26.566Z,26.97
2018-12-18T04:43:54.691Z,26.90
2018-12-18T04:46:22.830Z,27.53
2018-12-18T04:48:50.991Z,25.67
2018-12-18T04:51:19.243Z,24.87
2018-12-18T04:53:47.369Z,23.50
2018-12-18T04:56:15.599Z,26.17
2018-12-18T04:58:43.734Z,25.17
2018-12-18T05:01:11.891Z,24.83
2018-12-18T05:03:40.134Z,25.20
2018-12-18T05:06:08.284Z,23.80
2018-12-18T05:08:36.410Z,24.40
2018-12-18T05:11:04.567Z,24.77
2018-12-18T05:13:32.703Z,24.77
2018-12-18T05:16:00.837Z,24.27
2018-12-18T05:18:29.002Z,24.23
2018-12-18T05:20:57.130Z,23.60
2018-12-18T05:23:25.275Z,23.47
2018-12-18T05:25:53.430Z,22.87
2018-12-18T05:28:21.681Z,22.20
2018-12-18T05:30:49.824Z,21.57
2018-12-18T05:33:17.976Z,21.17
2018-12-18T05:35:46.110Z,21.07
2018-12-18T05:38:14.267Z,21.80
2018-12-18T05:40:42.438Z,20.43
2018-12-18T05:43:10.574Z,20.60
2018-12-18T05:45:38.723Z,19.93
2018-12-18T05:48:06.865Z,20.63
2018-12-18T05:50:35.014Z,20.23
2018-12-18T05:53:03.290Z,21.20
2018-12-18T05:55:31.425Z,19.67
2018-12-18T05:57:59.570Z,19.23
2018-12-18T06:00:28.055Z,19.17
2018-12-18T06:02:56.246Z,19.13
2018-12-18T06:05:24.390Z,19.10
2018-12-18T06:07:52.551Z,18.17
2018-12-18T06:10:20.671Z,18.70
2018-12-18T06:12:49.098Z,18.47
2018-12-18T06:15:17.278Z,17.77
2018-12-18T06:17:45.416Z,17.90
2018-12-18T06:20:13.658Z,18.67
2018-12-18T06:22:41.807Z,24.13
2018-12-18T06:25:09.994Z,17.77
2018-12-18T06:27:38.141Z,17.00
2018-12-18T06:30:06.622Z,17.40
2018-12-18T06:32:34.804Z,16.57
2018-12-18T06:35:02.974Z,20.07
2018-12-18T06:37:31.123Z,18.53
2018-12-18T06:39:59.259Z,17.57
2018-12-18T06:42:27.430Z,17.37
2018-12-18T06:44:55.569Z,17.63
2018-12-18T06:47:23.744Z,18.10
2018-12-18T06:49:51.919Z,18.43
2018-12-18T06:52:20.054Z,16.37
2018-12-18T06:54:48.187Z,23.40
2018-12-18T06:57:16.315Z,15.67
2018-12-18T06:59:44.549Z,15.37
2018-12-18T07:02:12.798Z,15.03
2018-12-18T07:04:40.932Z,14.47
2018-12-18T07:07:09.073Z,13.87
2018-12-18T07:09:37.228Z,14.73
2018-12-18T07:12:05.392Z,15.30
2018-12-18T07:14:33.582Z,14.60
2018-12-18T07:17:01.745Z,13.90
2018-12-18T07:19:29.889Z,13.93
2018-12-18T07:21:58.114Z,13.73
2018-12-18T07:24:26.291Z,13.37
2018-12-18T07:26:54.451Z,13.90
2018-12-18T07:29:22.593Z,13.93
2018-12-18T07:31:50.735Z,13.30
2018-12-18T07:34:18.870Z,14.17
2018-12-18T07:36:47.158Z,13.60
2018-12-18T07:39:15.487Z,13.67
2018-12-18T07:41:43.650Z,13.37
2018-12-18T07:44:11.817Z,13.50
2018-12-18T07:46:39.950Z,13.03
2018-12-18T07:49:08.104Z,13.47
2018-12-18T07:51:36.238Z,13.40
2018-12-18T07:54:04.382Z,12.93
2018-12-18T07:56:32.526Z,13.00
2018-12-18T07:59:00.672Z,13.43
2018-12-18T08:01:28.844Z,12.93
2018-12-18T08:03:56.996Z,13.90
2018-12-18T08:06:25.159Z,12.10
2018-12-18T08:08:53.302Z,12.60
2018-12-18T08:11:21.458Z,14.10
2018-12-18T08:13:49.595Z,12.80
2018-12-18T08:16:17.773Z,12.27
2018-12-18T08:18:45.910Z,13.13
2018-12-18T08:21:14.102Z,12.80
2018-12-18T08:23:42.229Z,13.10
2018-12-18T08:26:10.376Z,12.30
2018-12-18T08:28:38.536Z,12.13
2018-12-18T08:31:06.790Z,12.70
2018-12-18T08:33:34.945Z,12.37
2018-12-18T08:36:03.097Z,11.17
2018-12-18T08:38:31.527Z,12.20
2018-12-18T08:40:59.669Z,11.13
2018-12-18T08:43:27.814Z,11.97
2018-12-18T08:45:55.965Z,11.33
2018-12-18T08:48:24.210Z,10.70
2018-12-18T08:50:52.375Z,10.93
2018-12-18T08:53:20.536Z,10.73
2018-12-18T08:55:48.678Z,10.50
2018-12-18T08:58:16.835Z,11.17
2018-12-18T09:00:44.998Z,11.60
2018-12-18T09:03:13.175Z,10.47
2018-12-18T09:05:43.330Z,11.17
2018-12-18T09:08:11.593Z,11.17
2018-12-18T09:10:40.090Z,11.63
2018-12-18T09:13:08.317Z,11.17
2018-12-18T09:15:41.891Z,12.07
2018-12-18T09:18:10.186Z,11.20
2018-12-18T09:20:38.341Z,11.77
2018-12-18T09:23:06.516Z,11.27
2018-12-18T09:25:34.761Z,11.77
2018-12-18T09:28:02.949Z,11.07
2018-12-18T09:30:31.179Z,11.00
2018-12-18T09:32:59.354Z,11.57
2018-12-18T09:35:27.623Z,10.37
2018-12-18T09:38:01.218Z,10.63
2018-12-18T09:40:33.735Z,10.13
2018-12-18T09:43:07.355Z,9.77
2018-12-18T09:45:35.501Z,15.63
2018-12-18T09:48:03.642Z,10.23
2018-12-18T09:50:31.822Z,9.93
2018-12-18T09:53:00.926Z,9.33
2018-12-18T09:55:29.090Z,9.30
2018-12-18T09:57:57.502Z,9.23
2018-12-18T10:00:25.821Z,8.90
2018-12-18T10:02:53.962Z,8.37
2018-12-18T10:05:22.218Z,8.93
2018-12-18T10:07:50.381Z,7.50
2018-12-18T10:10:18.566Z,7.87
2018-12-18T10:12:52.208Z,8.97
2018-12-18T10:15:20.438Z,8.43
2018-12-18T10:17:48.614Z,8.63
2018-12-18T10:20:16.884Z,8.40
2018-12-18T10:22:45.095Z,8.73
2018-12-18T10:25:13.335Z,9.03
2018-12-18T10:27:41.486Z,7.93
2018-12-18T10:30:10.877Z,8.37
2018-12-18T10:32:39.278Z,8.67
2018-12-18T10:35:07.574Z,8.40
2018-12-18T10:37:35.722Z,7.33
2018-12-18T10:40:04.306Z,6.03
2018-12-18T10:42:32.471Z,6.80
2018-12-18T10:45:00.631Z,6.07
2018-12-18T10:47:28.949Z,5.93
2018-12-18T10:49:57.090Z,6.50
2018-12-18T10:52:25.234Z,6.97
2018-12-18T10:54:53.370Z,6.70
2018-12-18T10:57:21.574Z,6.87
2018-12-18T10:59:49.782Z,6.90
2018-12-18T11:02:17.955Z,6.10
2018-12-18T11:04:46.099Z,7.30
2018-12-18T11:07:14.242Z,7.37
2018-12-18T11:09:42.422Z,6.80
2018-12-18T11:12:10.574Z,7.83
2018-12-18T11:14:38.719Z,6.60
2018-12-18T11:17:06.845Z,6.80
2018-12-18T11:19:34.979Z,6.53
2018-12-18T11:22:03.243Z,6.70
2018-12-18T11:24:31.362Z,6.40
2018-12-18T11:26:59.519Z,6.17
2018-12-18T11:29:27.757Z,6.40
2018-12-18T11:31:55.906Z,6.07
2018-12-18T11:34:24.207Z,5.43
2018-12-18T11:36:52.340Z,5.03
2018-12-18T11:39:20.506Z,4.77
2018-12-18T11:41:48.643Z,4.65
2018-12-18T11:44:16.788Z,4.30
2018-12-18T11:46:44.996Z,4.45
2018-12-18T11:49:13.246Z,4.83
2018-12-18T11:51:41.473Z,5.57
2018-12-18T11:54:09.700Z,5.40
2018-12-18T11:56:37.864Z,4.72
2018-12-18T11:59:05.977Z,4.20
2018-12-18T12:01:34.154Z,4.80
2018-12-18T12:04:02.342Z,4.17
2018-12-18T12:06:30.488Z,4.40
2018-12-18T12:08:58.675Z,4.53
2018-12-18T12:11:27.529Z,4.70
2018-12-18T12:13:55.695Z,4.87
2018-12-18T12:16:23.854Z,4.30
2018-12-18T12:18:52.031Z,4.30
2018-12-18T12:21:20.182Z,4.95
2018-12-18T12:23:48.318Z,4.95
2018-12-18T12:26:22.094Z,5.10
2018-12-18T12:28:50.262Z,4.50
2018-12-18T12:31:18.451Z,4.50
2018-12-18T12:33:46.691Z,4.30
2018-12-18T12:36:15.082Z,5.30
2018-12-18T12:38:43.566Z,5.47
2018-12-18T12:41:15.973Z,5.70
2018-12-18T12:43:44.381Z,5.90
2018-12-18T12:46:12.802Z,6.03
2018-12-18T12:48:46.409Z,5.83
2018-12-18T12:51:14.782Z,5.67
2018-12-18T12:53:43.155Z,5.40
2018-12-18T12:56:11.649Z,5.00
2018-12-18T12:58:40.099Z,5.30
2018-12-18T13:01:08.471Z,4.70
2018-12-18T13:03:36.875Z,5.27
2018-12-18T13:06:05.259Z,4.30
2018-12-18T13:08:33.672Z,4.23
2018-12-18T13:11:02.068Z,4.50
2018-12-18T13:13:30.472Z,3.77
2018-12-18T13:15:58.880Z,4.00
2018-12-18T13:18:27.328Z,3.57
2018-12-18T13:20:55.712Z,3.30
2018-12-18T13:23:24.091Z,3.87
2018-12-18T13:25:52.472Z,3.63
2018-12-18T13:28:20.926Z,4.00
2018-12-18T13:30:49.473Z,5.13
2018-12-18T13:33:17.888Z,4.60
2018-12-18T13:35:46.296Z,4.50
2018-12-18T13:38:14.680Z,4.47
2018-12-18T13:40:43.161Z,3.43
2018-12-18T13:43:11.833Z,3.10
2018-12-18T13:45:41.342Z,3.10
2018-12-18T13:48:09.944Z,3.30
2018-12-18T13:50:38.391Z,3.20
2018-12-18T13:53:06.808Z,2.83
2018-12-18T13:55:36.796Z,3.30
2018-12-18T13:58:05.338Z,3.53
2018-12-18T14:00:33.722Z,4.57
2018-12-18T14:03:02.739Z,4.57
2018-12-18T14:05:31.119Z,3.70
2018-12-18T14:07:59.526Z,3.77
2018-12-18T14:10:27.946Z,3.50
2018-12-18T14:12:57.550Z,3.50
2018-12-18T14:15:26.156Z,3.07
2018-12-18T14:17:54.782Z,3.77
2018-12-18T14:20:23.627Z,3.60
2018-12-18T14:22:52.021Z,3.40
2018-12-18T14:25:20.430Z,3.37
2018-12-18T14:27:48.929Z,2.97
2018-12-18T14:30:17.314Z,3.40
2018-12-18T14:32:45.682Z,3.00
2018-12-18T14:35:14.055Z,3.00
2018-12-18T14:37:42.427Z,2.70
2018-12-18T14:40:10.840Z,2.73
2018-12-18T14:42:39.267Z,3.10
2018-12-18T14:45:07.803Z,3.10
2018-12-18T14:47:36.280Z,2.60
2018-12-18T14:50:05.521Z,2.87
2018-12-18T14:52:33.930Z,3.00
2018-12-18T14:55:02.892Z,2.80
2018-12-18T14:57:31.311Z,2.63
2018-12-18T14:59:59.766Z,2.10
2018-12-18T15:02:28.143Z,2.53
2018-12-18T15:04:56.562Z,2.30
2018-12-18T15:07:24.959Z,2.40
2018-12-18T15:09:53.826Z,2.33
2018-12-18T15:12:22.226Z,2.70
2018-12-18T15:14:50.606Z,2.30
2018-12-18T15:17:19.028Z,2.70
2018-12-18T15:19:47.571Z,3.33
2018-12-18T15:22:15.951Z,3.10
2018-12-18T15:24:44.399Z,3.83
2018-12-18T15:27:12.924Z,3.40
2018-12-18T15:29:41.336Z,3.90
2018-12-18T15:32:09.722Z,5.10
2018-12-18T15:34:38.098Z,3.83
2018-12-18T15:37:09.822Z,3.13
2018-12-18T15:39:37.174Z,2.50
2018-12-18T15:42:06.077Z,2.93
2018-12-18T15:44:34.476Z,2.90
2018-12-18T15:47:02.859Z,2.80
2018-12-18T15:49:31.276Z,3.10
2018-12-18T15:51:59.782Z,2.90
2018-12-18T15:54:28.274Z,2.67
2018-12-18T15:56:56.683Z,2.80
2018-12-18T15:59:25.050Z,2.87
2018-12-18T16:01:53.462Z,2.77
2018-12-18T16:04:21.854Z,3.40
2018-12-18T16:06:50.277Z,2.90
2018-12-18T16:09:18.658Z,3.10
2018-12-18T16:11:47.070Z,3.53
2018-12-18T16:14:15.473Z,3.40
2018-12-18T16:16:43.883Z,4.23
2018-12-18T16:19:12.466Z,5.67
2018-12-18T16:21:41.277Z,4.20
2018-12-18T16:24:09.688Z,4.80
2018-12-18T16:26:38.092Z,3.97
2018-12-18T16:29:06.551Z,4.63
2018-12-18T16:31:34.946Z,4.50
2018-12-18T16:34:04.063Z,4.10
2018-12-18T16:36:32.504Z,5.27
2018-12-18T16:39:00.995Z,4.30
2018-12-18T16:41:29.369Z,5.47
2018-12-18T16:43:58.331Z,5.27
2018-12-18T16:46:26.883Z,5.50
2018-12-18T16:48:55.335Z,5.23
2018-12-18T16:51:23.836Z,5.80
2018-12-18T16:53:52.287Z,5.67
2018-12-18T16:56:20.708Z,5.57
2018-12-18T16:58:49.109Z,5.27
2018-12-18T17:01:17.619Z,5.63
2018-12-18T17:03:46.006Z,7.03
2018-12-18T17:06:14.435Z,5.10
2018-12-18T17:08:42.877Z,5.97
2018-12-18T17:11:11.254Z,6.70
2018-12-18T17:13:39.676Z,6.53
2018-12-18T17:16:08.126Z,6.10
2018-12-18T17:18:36.531Z,6.47
2018-12-18T17:21:04.954Z,6.67
2018-12-18T17:23:33.343Z,7.07
2018-12-18T17:26:01.769Z,7.40
2018-12-18T17:28:30.213Z,8.17
2018-12-18T17:30:58.847Z,7.93
2018-12-18T17:33:27.266Z,8.20
2018-12-18T17:35:55.890Z,7.63
2018-12-18T17:38:25.656Z,7.60
2018-12-18T17:40:54.656Z,7.13
2018-12-18T17:43:23.504Z,7.70
2018-12-18T17:45:52.040Z,8.10
2018-12-18T17:48:20.486Z,7.23
2018-12-18T17:50:48.906Z,7.90
2018-12-18T17:53:17.495Z,7.87
2018-12-18T17:55:52.540Z,8.00
2018-12-18T17:58:20.979Z,8.07
2018-12-18T18:00:49.372Z,7.20
2018-12-18T18:03:17.797Z,7.70
2018-12-18T18:05:46.183Z,7.00
2018-12-18T18:08:14.616Z,8.27
2018-12-18T18:10:43.013Z,7.00
2018-12-18T18:13:11.422Z,6.57
2018-12-18T18:15:39.841Z,6.57
2018-12-18T18:18:09.127Z,7.43
2018-12-18T18:20:37.553Z,7.47
2018-12-18T18:23:05.958Z,7.53
2018-12-18T18:25:34.405Z,7.50
2018-12-18T18:28:02.829Z,7.63
2018-12-18T18:30:31.309Z,7.23
2018-12-18T18:32:59.769Z,7.27
2018-12-18T18:35:28.235Z,7.10
2018-12-18T18:37:57.303Z,7.30
2018-12-18T18:40:25.810Z,8.23
2018-12-18T18:42:54.245Z,8.40
2018-12-18T18:45:22.641Z,7.40
2018-12-18T18:47:51.098Z,6.20
2018-12-18T18:50:19.537Z,7.10
2018-12-18T18:52:47.997Z,6.73
2018-12-18T18:55:16.429Z,7.47
2018-12-18T18:57:44.891Z,6.93
2018-12-18T19:00:13.455Z,7.23
2018-12-18T19:02:41.888Z,7.73
2018-12-18T19:05:10.342Z,8.13
2018-12-18T19:07:38.742Z,7.90
2018-12-18T19:10:08.150Z,7.80
2018-12-18T19:12:36.816Z,7.93
2018-12-18T19:15:05.783Z,11.83
2018-12-18T19:17:34.176Z,8.20
2018-12-18T19:20:02.616Z,7.83
2018-12-18T19:22:31.044Z,7.30
2018-12-18T19:24:59.589Z,7.67
2018-12-18T19:27:28.054Z,7.87
2018-12-18T19:29:56.538Z,7.43
2018-12-18T19:32:24.932Z,7.87
2018-12-18T19:34:53.367Z,7.00
2018-12-18T19:37:21.841Z,7.23
2018-12-18T19:39:51.650Z,7.40
2018-12-18T19:42:20.117Z,6.60
2018-12-18T19:44:48.915Z,7.10
2018-12-18T19:47:17.348Z,6.70
2018-12-18T19:49:45.796Z,6.67
2018-12-18T19:52:14.241Z,7.37
2018-12-18T19:54:42.786Z,7.30
2018-12-18T19:57:11.264Z,6.07
2018-12-18T19:59:39.871Z,6.40
2018-12-18T20:02:08.387Z,6.93
2018-12-18T20:04:36.849Z,6.20
2018-12-18T20:07:05.343Z,5.77
2018-12-18T20:09:33.758Z,5.67
2018-12-18T20:12:02.287Z,5.90
2018-12-18T20:14:30.817Z,6.13
2018-12-18T20:16:59.379Z,9.97
2018-12-18T20:19:27.804Z,5.70
2018-12-18T20:21:56.234Z,6.20
2018-12-18T20:24:24.748Z,5.50
2018-12-18T20:26:53.194Z,5.60
2018-12-18T20:29:21.689Z,5.67
2018-12-18T20:31:50.115Z,6.40
2018-12-18T20:34:18.566Z,5.80
2018-12-18T20:36:47.050Z,6.10
2018-12-18T20:39:15.474Z,6.20
2018-12-18T20:41:44.019Z,5.83
2018-12-18T20:44:12.463Z,6.43
2018-12-18T20:46:40.891Z,6.13
2018-12-18T20:49:09.370Z,6.07
2018-12-18T20:51:38.800Z,6.00
2018-12-18T20:54:07.201Z,6.63
2018-12-18T20:56:35.814Z,6.40
2018-12-18T20:59:04.433Z,6.20
2018-12-18T21:01:32.995Z,6.27
2018-12-18T21:04:01.423Z,6.03
2018-12-18T21:06:29.820Z,6.33
2018-12-18T21:08:58.441Z,5.90
2018-12-18T21:11:26.854Z,5.83
2018-12-18T21:13:55.300Z,6.43
2018-12-18T21:16:23.932Z,6.47
2018-12-18T21:18:52.396Z,8.70
2018-12-18T21:21:20.956Z,6.90
2018-12-18T21:23:49.375Z,6.07
2018-12-18T21:26:17.907Z,6.93
2018-12-18T21:28:46.401Z,6.10
2018-12-18T21:31:14.795Z,6.30
2018-12-18T21:33:43.273Z,6.37
2018-12-18T21:36:11.820Z,6.83
2018-12-18T21:38:40.242Z,6.80
2018-12-18T21:41:08.683Z,6.10
2018-12-18T21:43:37.090Z,6.00
2018-12-18T21:46:05.497Z,5.93
2018-12-18T21:48:33.940Z,6.70
2018-12-18T21:51:03.241Z,7.03
2018-12-18T21:53:31.641Z,6.57
2018-12-18T21:56:00.175Z,6.20
2018-12-18T21:58:28.610Z,5.87
2018-12-18T22:00:57.171Z,6.37
2018-12-18T22:03:25.566Z,6.37
2018-12-18T22:05:53.975Z,6.97
2018-12-18T22:08:22.351Z,6.37
2018-12-18T22:10:50.783Z,6.40
2018-12-18T22:13:19.589Z,10.07
2018-12-18T22:15:47.986Z,9.27
2018-12-18T22:18:16.406Z,6.60
2018-12-18T22:20:44.774Z,6.50
2018-12-18T22:23:13.171Z,6.40
2018-12-18T22:25:41.543Z,6.50
2018-12-18T22:28:09.950Z,5.87
2018-12-18T22:30:38.483Z,7.10
2018-12-18T22:33:06.930Z,6.40
2018-12-18T22:35:35.397Z,6.27
2018-12-18T22:38:03.798Z,5.53
2018-12-18T22:40:32.321Z,6.30
2018-12-18T22:43:00.765Z,6.07
2018-12-18T22:45:29.308Z,6.27
2018-12-18T22:47:57.676Z,6.00
2018-12-18T22:50:26.659Z,6.60
2018-12-18T22:52:55.059Z,6.10
2018-12-18T22:55:23.468Z,5.67
2018-12-18T22:57:51.846Z,5.77
2018-12-18T23:00:26.342Z,5.90
2018-12-18T23:02:54.822Z,6.30
2018-12-18T23:05:23.234Z,6.17
2018-12-18T23:07:51.661Z,5.43
2018-12-18T23:10:20.039Z,5.73
2018-12-18T23:12:48.555Z,5.23
2018-12-18T23:15:16.969Z,5.53
2018-12-18T23:17:45.404Z,5.57
2018-12-18T23:20:13.934Z,5.33
2018-12-18T23:22:42.346Z,5.40
2018-12-18T23:25:10.839Z,5.40
2018-12-18T23:27:39.217Z,5.70
2018-12-18T23:30:07.739Z,5.10
2018-12-18T23:32:36.180Z,5.87
2018-12-18T23:35:04.874Z,4.93
2018-12-18T23:37:33.271Z,5.43
2018-12-18T23:40:01.803Z,5.07
2018-12-18T23:42:30.262Z,5.20
2018-12-18T23:44:58.654Z,5.33
2018-12-18T23:47:27.129Z,5.20
2018-12-18T23:49:55.518Z,5.47
2018-12-18T23:52:24.071Z,5.73
2018-12-18T23:54:52.523Z,5.20
2018-12-18T23:57:20.903Z,5.50
2018-12-18T23:59:49.304Z,5.03
